Time;durP1;ratioP1;P1;durP2;ratioP2;P2;SDS_P1;SDS_P2;PMS_P1;PMS_P2;Temp;Humidity;BMP_temperature;BMP_pressure;BME280_temperature;BME280_humidity;BME280_pressure;Samples;Min_cycle;Max_cycle;Signal;HPM_P1;HPM_P2
2022/02/17 00:02:55;;;;;;;0.30;0.30;;;;;;;12.52;73.30;96217.78;8347852;28;20228;-68
2022/02/17 00:06:58;;;;;;;0.47;0.27;;;;;;;12.77;72.20;96199.41;8349762;28;20235;-68
2022/02/17 00:11:02;;;;;;;0.20;0.20;;;;;;;12.76;72.23;96215.97;8349294;28;20232;-68
2022/02/17 00:15:06;;;;;;;0.63;0.30;;;;;;;12.88;71.74;96210.59;8349397;28;20255;-68
2022/02/17 00:19:09;;;;;;;1.33;0.30;;;;;;;12.76;72.03;96202.97;8349332;28;20232;-68
2022/02/17 00:23:12;;;;;;;0.33;0.20;;;;;;;12.83;71.44;96183.31;8349330;28;20242;-68
2022/02/17 00:27:17;;;;;;;2.07;0.40;;;;;;;12.90;72.32;96180.09;8349038;28;20244;-68
2022/02/17 00:31:20;;;;;;;2.10;0.30;;;;;;;12.79;72.40;96176.75;8349316;28;20234;-68
2022/02/17 00:35:23;;;;;;;0.17;0.17;;;;;;;12.46;73.96;96168.16;8349254;28;20239;-68
2022/02/17 00:39:26;;;;;;;1.30;0.53;;;;;;;12.74;72.97;96152.91;8348777;28;20228;-68
2022/02/17 00:43:30;;;;;;;0.20;0.20;;;;;;;12.85;72.59;96163.25;8348395;28;20236;-68
2022/02/17 00:47:33;;;;;;;0.50;0.43;;;;;;;12.70;72.76;96176.56;8348301;28;20322;-68
2022/02/17 00:51:39;;;;;;;1.90;0.30;;;;;;;12.77;72.49;96163.88;8348633;28;20246;-69
2022/02/17 00:55:42;;;;;;;0.50;0.20;;;;;;;12.92;71.17;96174.78;8348318;28;20243;-68
2022/02/17 00:59:47;;;;;;;0.20;0.20;;;;;;;12.88;71.18;96196.78;8348088;28;20232;-68
2022/02/17 01:03:50;;;;;;;0.20;0.20;;;;;;;13.07;70.84;96177.91;8347939;28;20240;-68
2022/02/17 01:07:53;;;;;;;0.20;0.20;;;;;;;13.01;70.96;96179.22;8347989;28;20228;-68
2022/02/17 01:11:56;;;;;;;0.20;0.20;;;;;;;12.98;70.82;96196.84;8347646;28;20441;-68
2022/02/17 01:16:00;;;;;;;0.20;0.20;;;;;;;13.03;70.85;96187.72;8347658;28;20238;-68
2022/02/17 01:20:06;;;;;;;0.70;0.60;;;;;;;12.95;71.21;96192.72;8347640;28;20459;-68
2022/02/17 01:24:09;;;;;;;0.37;0.20;;;;;;;12.88;71.44;96210.59;8347824;28;20241;-68
2022/02/17 01:28:14;;;;;;;0.43;0.20;;;;;;;13.01;71.45;96194.00;8347495;28;20550;-68
2022/02/17 01:32:19;;;;;;;0.30;0.27;;;;;;;12.99;71.39;96195.91;8347720;28;20228;-68
2022/02/17 01:36:22;;;;;;;1.17;0.20;;;;;;;12.98;71.32;96192.47;8347409;28;20239;-68
2022/02/17 01:40:24;;;;;;;0.20;0.20;;;;;;;12.82;71.66;96148.75;8347532;28;20227;-68
2022/02/17 01:44:27;;;;;;;0.20;0.20;;;;;;;12.84;71.37;96159.84;8348531;28;20239;-68
2022/02/17 01:48:32;;;;;;;0.40;0.20;;;;;;;12.77;71.00;96116.31;8349329;28;20224;-68
2022/02/17 01:52:35;;;;;;;0.40;0.20;;;;;;;12.89;70.50;96097.94;8349414;28;20507;-68
2022/02/17 01:56:40;;;;;;;0.23;0.10;;;;;;;12.94;70.21;96102.72;8348910;28;20392;-68
2022/02/17 02:00:43;;;;;;;1.00;0.20;;;;;;;12.85;70.61;96099.16;8347618;28;20238;-68
2022/02/17 02:04:48;;;;;;;0.50;0.20;;;;;;;13.03;69.91;96093.34;8346903;28;20238;-68
2022/02/17 02:08:51;;;;;;;0.20;0.20;;;;;;;12.85;70.46;96062.78;8347127;28;20454;-68
2022/02/17 02:12:54;;;;;;;0.50;0.20;;;;;;;12.75;70.47;96067.06;8347281;28;20235;-68
2022/02/17 02:16:57;;;;;;;0.20;0.20;;;;;;;12.68;70.61;96076.34;8346850;28;20236;-68
2022/02/17 02:21:03;;;;;;;0.10;0.10;;;;;;;12.59;71.34;96069.31;8346861;28;20551;-68
2022/02/17 02:25:07;;;;;;;0.97;0.20;;;;;;;12.92;70.17;96063.06;8349852;28;20434;-68
2022/02/17 02:29:10;;;;;;;2.33;0.20;;;;;;;12.85;69.93;96043.75;8353097;28;20235;-68
2022/02/17 02:33:13;;;;;;;2.60;0.20;;;;;;;13.05;69.59;96052.47;8352683;28;20561;-68
2022/02/17 02:37:17;;;;;;;0.47;0.20;;;;;;;13.04;69.15;96056.84;8352558;28;20232;-68
2022/02/17 02:41:20;;;;;;;0.47;0.20;;;;;;;13.11;68.85;96041.56;8352846;28;20240;-68
2022/02/17 02:45:24;;;;;;;0.30;0.20;;;;;;;13.16;68.70;96030.78;8352575;28;20236;-68
2022/02/17 02:49:27;;;;;;;0.40;0.20;;;;;;;13.05;68.82;96045.50;8352012;28;20442;-68
2022/02/17 02:53:32;;;;;;;1.57;0.20;;;;;;;13.15;68.20;96050.72;8352065;28;20235;-68
2022/02/17 02:57:34;;;;;;;0.57;0.20;;;;;;;13.25;68.28;96042.97;8351252;28;20232;-68
2022/02/17 03:01:38;;;;;;;0.30;0.10;;;;;;;13.21;68.46;96039.84;8351812;28;20232;-68
2022/02/17 03:05:41;;;;;;;0.20;0.20;;;;;;;13.25;68.76;96030.81;8351379;28;20247;-68
2022/02/17 03:09:46;;;;;;;1.60;0.20;;;;;;;13.32;68.85;96025.94;8351607;28;20238;-68
2022/02/17 03:13:49;;;;;;;0.50;0.10;;;;;;;13.21;68.74;96019.03;8351424;28;20228;-68
2022/02/17 03:17:52;;;;;;;0.13;0.10;;;;;;;13.09;68.69;96000.09;8351540;28;20232;-69
2022/02/17 03:21:55;;;;;;;0.10;0.10;;;;;;;13.07;68.81;96027.19;8351451;28;20511;-68
2022/02/17 03:26:00;;;;;;;0.10;0.10;;;;;;;13.03;68.63;96013.63;8351184;28;20243;-68
2022/02/17 03:30:04;;;;;;;0.20;0.20;;;;;;;12.99;70.05;96021.81;8351280;28;20408;-68
2022/02/17 03:34:07;;;;;;;0.43;0.20;;;;;;;13.23;69.74;96016.28;8351127;28;20235;-68
2022/02/17 03:38:10;;;;;;;0.20;0.10;;;;;;;13.24;69.27;96030.94;8350878;28;20239;-68
2022/02/17 03:42:14;;;;;;;0.10;0.10;;;;;;;13.24;69.91;96033.53;8350810;28;20268;-68
2022/02/17 03:46:17;;;;;;;1.20;0.20;;;;;;;12.95;70.70;96031.66;8350823;28;20232;-68
2022/02/17 03:50:22;;;;;;;0.10;0.10;;;;;;;12.74;70.32;96007.47;8351011;28;20228;-68
2022/02/17 03:54:25;;;;;;;0.30;0.10;;;;;;;12.74;70.05;96002.28;8350486;28;20228;-68
2022/02/17 04:02:53;;;;;;;0.10;0.10;;;;;;;12.96;69.15;95981.31;8349916;28;20231;-68
2022/02/17 04:06:56;;;;;;;0.77;0.10;;;;;;;13.15;68.41;96011.75;8349962;28;20250;-68
2022/02/17 04:11:02;;;;;;;0.40;0.20;;;;;;;13.24;68.41;95997.97;8349629;28;20243;-68
2022/02/17 04:15:10;;;;;;;0.20;0.10;;;;;;;13.32;68.69;96012.94;8349764;28;20231;-68
2022/02/17 04:19:13;;;;;;;0.30;0.20;;;;;;;13.26;68.78;96029.03;8349426;28;20543;-68
2022/02/17 04:23:15;;;;;;;1.73;0.20;;;;;;;13.24;69.58;96018.75;8349126;28;20569;-68
2022/02/17 04:27:18;;;;;;;0.70;0.30;;;;;;;13.14;69.96;96046.50;8348579;28;20242;-68
2022/02/17 04:31:23;;;;;;;0.77;0.17;;;;;;;13.18;68.92;96031.47;8348949;28;20228;-68
2022/02/17 04:35:26;;;;;;;0.57;0.20;;;;;;;13.10;68.25;96040.75;8348720;28;20228;-68
2022/02/17 04:39:30;;;;;;;1.30;0.10;;;;;;;13.09;67.99;96064.25;8348728;28;20251;-68
2022/02/17 04:43:33;;;;;;;0.40;0.10;;;;;;;13.21;66.98;96051.97;8348243;28;20530;-69
2022/02/17 04:47:37;;;;;;;1.87;0.30;;;;;;;13.26;66.50;96039.44;8348003;28;20246;-69
2022/02/17 04:51:40;;;;;;;0.40;0.23;;;;;;;13.10;66.06;96058.94;8348328;28;20232;-68
2022/02/17 04:55:43;;;;;;;0.40;0.20;;;;;;;13.13;65.81;96080.41;8348088;28;20239;-68
2022/02/17 04:59:48;;;;;;;0.50;0.30;;;;;;;13.28;64.66;96073.91;8347955;28;20236;-68
2022/02/17 05:03:53;;;;;;;0.70;0.20;;;;;;;13.23;64.69;96089.06;8348054;28;20538;-68
2022/02/17 05:07:56;;;;;;;0.57;0.27;;;;;;;13.24;63.82;96088.13;8346337;28;20228;-68
2022/02/17 05:12:00;;;;;;;3.27;0.30;;;;;;;13.11;64.38;96109.94;8347039;28;20228;-68
2022/02/17 05:16:04;;;;;;;0.23;0.20;;;;;;;13.26;64.34;96115.63;8347042;28;20228;-69
2022/02/17 05:20:11;;;;;;;0.80;0.30;;;;;;;13.23;64.82;96125.44;8346689;28;20549;-68
2022/02/17 05:24:14;;;;;;;0.43;0.30;;;;;;;13.09;65.45;96142.22;8347059;28;20418;-68
2022/02/17 05:28:17;;;;;;;0.90;0.33;;;;;;;13.14;62.96;96139.25;8346924;28;20422;-69
2022/02/17 05:32:20;;;;;;;0.30;0.20;;;;;;;13.15;63.10;96131.28;8346437;28;20228;-69
2022/02/17 05:36:24;;;;;;;0.83;0.40;;;;;;;13.08;64.53;96146.59;8345640;28;20223;-69
2022/02/17 05:40:27;;;;;;;1.20;0.30;;;;;;;12.96;65.34;96155.38;8347298;28;20235;-69
2022/02/17 05:44:30;;;;;;;2.00;0.37;;;;;;;12.87;65.01;96174.31;8347132;28;20293;-69
2022/02/17 05:48:34;;;;;;;1.23;0.50;;;;;;;13.10;63.37;96173.28;8338848;28;20236;-68
2022/02/17 05:52:38;;;;;;;2.80;1.00;;;;;;;12.87;61.17;96197.72;8347014;28;20234;-68
2022/02/17 05:56:41;;;;;;;1.17;0.60;;;;;;;12.92;59.87;96200.75;8346620;28;20435;-68
2022/02/17 06:00:44;;;;;;;1.90;0.73;;;;;;;12.91;57.52;96197.34;8351020;28;20418;-68
2022/02/17 06:04:47;;;;;;;3.83;0.90;;;;;;;12.68;54.05;96212.22;8353121;28;20223;-68
2022/02/17 06:08:51;;;;;;;2.30;1.10;;;;;;;12.78;53.64;96246.06;8353263;28;20242;-68
2022/02/17 06:12:54;;;;;;;4.50;1.37;;;;;;;12.75;50.78;96219.50;8353165;28;20232;-68
2022/02/17 06:16:57;;;;;;;4.77;1.30;;;;;;;12.62;49.87;96243.88;8352186;28;20591;-68
2022/02/17 06:21:00;;;;;;;4.37;1.30;;;;;;;12.70;49.18;96269.22;8352419;28;20240;-69
2022/02/17 06:25:06;;;;;;;7.00;1.53;;;;;;;12.42;48.64;96297.38;8352010;28;20270;-68
2022/02/17 06:29:08;;;;;;;4.80;1.47;;;;;;;12.59;48.03;96313.41;8351889;28;20231;-67
2022/02/17 06:33:12;;;;;;;9.40;2.00;;;;;;;12.41;47.35;96321.66;8352621;28;20232;-68
2022/02/17 06:37:15;;;;;;;5.20;1.63;;;;;;;12.49;47.81;96345.28;8352227;28;20251;-67
2022/02/17 06:41:23;;;;;;;7.50;1.93;;;;;;;12.70;48.71;96373.13;8352601;28;20231;-67
2022/02/17 06:45:25;;;;;;;6.53;2.30;;;;;;;12.54;48.93;96372.66;8352450;28;20243;-67
2022/02/17 06:49:29;;;;;;;6.33;2.20;;;;;;;12.58;47.47;96369.69;8352258;28;20243;-68
2022/02/17 06:53:33;;;;;;;7.13;2.43;;;;;;;12.76;46.30;96375.22;8351724;28;20268;-67
2022/02/17 06:57:37;;;;;;;8.73;2.53;;;;;;;12.81;45.70;96398.22;8352139;28;20236;-68
2022/02/17 07:01:40;;;;;;;9.70;3.00;;;;;;;12.72;46.27;96417.97;8352340;28;20232;-68
2022/02/17 07:05:43;;;;;;;8.77;2.70;;;;;;;12.71;46.82;96432.72;8351670;28;20539;-67
2022/02/17 07:09:47;;;;;;;12.10;2.90;;;;;;;12.42;44.46;96444.53;8350989;28;20243;-67
2022/02/17 07:13:51;;;;;;;10.50;2.73;;;;;;;12.45;45.65;96463.28;8351822;28;20441;-68
2022/02/17 07:17:54;;;;;;;11.60;2.53;;;;;;;12.52;46.64;96476.63;8351585;28;20236;-67
2022/02/17 07:21:57;;;;;;;11.20;3.37;;;;;;;12.21;45.23;96468.56;8351089;28;20288;-68
2022/02/17 07:26:00;;;;;;;14.13;3.70;;;;;;;12.78;43.79;96477.25;8350996;28;20298;-68
2022/02/17 07:30:06;;;;;;;11.20;3.50;;;;;;;12.57;43.24;96490.09;8350649;28;20236;-67
2022/02/17 07:34:09;;;;;;;10.83;3.37;;;;;;;12.75;42.48;96497.44;8350539;28;20227;-67
2022/02/17 07:38:13;;;;;;;18.53;4.70;;;;;;;12.64;41.29;96508.63;8350607;28;20236;-67
2022/02/17 07:42:16;;;;;;;14.30;3.80;;;;;;;12.49;40.53;96505.44;8350474;28;20238;-67
2022/02/17 07:46:20;;;;;;;12.73;3.80;;;;;;;12.70;40.45;96508.19;8350474;28;20228;-68
2022/02/17 07:50:25;;;;;;;17.33;4.10;;;;;;;12.40;40.28;96516.50;8350341;28;20232;-67
2022/02/17 07:54:29;;;;;;;16.73;4.33;;;;;;;12.51;39.75;96519.13;8350127;28;20234;-67
2022/02/17 07:58:32;;;;;;;14.90;3.93;;;;;;;12.39;40.52;96518.25;8349492;28;20421;-68
2022/02/17 08:02:36;;;;;;;14.33;4.20;;;;;;;12.57;39.92;96521.25;8349681;28;20235;-67
2022/02/17 08:06:43;;;;;;;15.53;4.20;;;;;;;12.73;39.90;96540.88;8349936;28;20238;-68
2022/02/17 08:10:46;;;;;;;17.17;4.47;;;;;;;12.62;40.50;96547.72;8349456;28;20236;-67
2022/02/17 08:14:49;;;;;;;16.97;5.10;;;;;;;12.70;39.71;96558.34;8349559;28;20235;-67
2022/02/17 08:18:56;;;;;;;14.13;4.60;;;;;;;13.03;38.16;96574.09;8349320;28;20232;-67
2022/02/17 08:23:19;;;;;;;13.90;4.10;;;;;;;13.40;38.29;96560.88;8348608;28;20401;-68
2022/02/17 08:27:22;;;;;;;17.53;4.43;;;;;;;14.05;36.84;96553.97;8349049;28;20236;-67
2022/02/17 08:31:25;;;;;;;15.10;4.50;;;;;;;14.14;36.29;96545.44;8349379;28;20242;-68
2022/02/17 08:35:29;;;;;;;16.77;4.20;;;;;;;14.40;36.60;96550.28;8348848;28;20255;-68
2022/02/17 08:39:33;;;;;;;16.10;3.90;;;;;;;14.43;34.92;96545.66;8348483;28;20236;-68
2022/02/17 08:43:36;;;;;;;12.70;4.13;;;;;;;14.74;34.56;96553.56;8348811;28;20232;-68
2022/02/17 08:47:40;;;;;;;11.30;3.57;;;;;;;15.07;33.12;96561.28;8348609;28;20240;-68
2022/02/17 08:51:45;;;;;;;12.30;3.53;;;;;;;14.96;33.63;96563.00;8348967;28;20452;-68
2022/02/17 08:55:48;;;;;;;13.43;4.03;;;;;;;15.41;33.84;96593.94;8348501;28;20236;-68
2022/02/17 08:59:51;;;;;;;14.83;4.40;;;;;;;15.72;33.71;96567.81;8347871;28;20291;-67
2022/02/17 09:03:54;;;;;;;16.03;6.03;;;;;;;15.99;42.51;96582.88;8344807;28;20425;-68
2022/02/17 09:07:58;;;;;;;13.43;4.30;;;;;;;16.71;36.50;96559.06;8348129;28;20258;-67
2022/02/17 09:12:01;;;;;;;16.87;4.77;;;;;;;17.19;35.81;96587.75;8348012;28;20236;-68
2022/02/17 09:16:06;;;;;;;14.33;4.53;;;;;;;17.35;35.32;96589.72;8347822;28;20530;-67
2022/02/17 09:20:11;;;;;;;21.27;4.53;;;;;;;16.55;34.44;96612.72;8347502;28;20234;-66
2022/02/17 09:24:17;;;;;;;15.63;4.27;;;;;;;16.31;35.44;96620.97;8347727;28;20566;-67
2022/02/17 09:28:20;;;;;;;18.13;4.07;;;;;;;16.20;37.03;96629.78;8347465;28;20252;-68
2022/02/17 09:32:25;;;;;;;13.60;4.03;;;;;;;15.44;38.22;96645.88;8348300;28;20543;-66
2022/02/17 09:36:28;;;;;;;11.97;4.03;;;;;;;15.10;39.43;96636.59;8358220;28;20232;-66
2022/02/17 09:40:33;;;;;;;14.30;3.60;;;;;;;15.75;38.26;96665.94;8357896;28;20232;-67
2022/02/17 09:44:36;;;;;;;14.57;3.50;;;;;;;16.17;37.72;96661.38;8358090;28;20232;-66
2022/02/17 09:48:41;;;;;;;10.93;3.40;;;;;;;15.79;37.75;96675.16;8357989;28;20239;-67
2022/02/17 09:52:44;;;;;;;14.30;3.60;;;;;;;16.16;39.31;96662.34;8357802;28;20236;-66
2022/02/17 09:56:49;;;;;;;11.67;3.33;;;;;;;17.00;36.69;96684.53;8357595;28;20238;-67
2022/02/17 10:00:53;;;;;;;10.13;3.40;;;;;;;16.69;37.05;96679.44;8357757;28;20395;-67
2022/02/17 10:04:58;;;;;;;13.40;3.70;;;;;;;16.57;39.42;96698.84;8357885;28;20235;-67
2022/02/17 10:09:06;;;;;;;13.97;3.93;;;;;;;15.17;40.80;96724.66;8357975;28;20227;-67
2022/02/17 10:13:17;;;;;;;16.07;4.10;;;;;;;14.83;45.50;96705.72;8358103;28;20231;-72
2022/02/17 10:17:20;;;;;;;13.60;4.43;;;;;;;16.49;41.82;96712.56;8357985;28;20232;-67
2022/02/17 10:21:23;;;;;;;15.03;4.40;;;;;;;15.88;42.91;96737.00;8357557;28;20236;-67
2022/02/17 10:25:26;;;;;;;16.97;5.20;;;;;;;15.71;40.06;96735.81;8357551;28;20240;-67
2022/02/17 10:29:30;;;;;;;16.33;4.93;;;;;;;15.40;38.12;96727.94;8358431;28;20231;-66
2022/02/17 10:33:41;;;;;;;14.60;4.63;;;;;;;15.82;39.64;96727.91;8356997;28;20515;-66
2022/02/17 10:37:48;;;;;;;17.73;5.03;;;;;;;16.07;37.06;96744.09;8357467;28;20295;-67
2022/02/17 10:41:53;;;;;;;13.60;4.53;;;;;;;14.92;37.48;96749.28;8357117;28;20254;-66
2022/02/17 10:46:05;;;;;;;13.30;4.13;;;;;;;14.66;43.09;96765.25;8353600;28;20232;-66
2022/02/17 10:50:09;;;;;;;14.80;4.60;;;;;;;15.28;38.09;96762.03;8352026;28;20535;-67
2022/02/17 10:54:12;;;;;;;11.80;4.07;;;;;;;16.14;40.47;96765.28;8351935;28;20527;-66
2022/02/17 10:58:18;;;;;;;17.40;5.37;;;;;;;16.49;36.30;96757.00;8351672;28;20562;-67
2022/02/17 11:02:23;;;;;;;19.63;5.20;;;;;;;15.60;37.93;96769.81;8351665;28;20247;-66
2022/02/17 11:06:26;;;;;;;16.17;4.83;;;;;;;15.35;38.56;96765.81;8351486;28;20278;-66
2022/02/17 11:10:29;;;;;;;15.13;5.03;;;;;;;15.15;37.81;96780.47;8351538;28;20235;-67
2022/02/17 11:14:39;;;;;;;21.33;4.83;;;;;;;14.39;40.98;96812.53;8351028;28;20228;-66
2022/02/17 11:18:46;;;;;;;17.93;4.90;;;;;;;14.01;45.38;96849.31;8351529;28;20244;-67
2022/02/17 11:22:50;;;;;;;14.67;4.57;;;;;;;13.00;49.79;96821.19;8351030;28;20543;-66
2022/02/17 11:27:03;;;;;;;20.48;5.63;;;;;;;12.55;51.48;96855.53;8350190;28;20698;-66
2022/02/17 11:31:08;;;;;;;19.27;5.47;;;;;;;13.33;50.47;96863.91;8351227;28;20424;-66
2022/02/17 11:35:30;;;;;;;17.70;5.20;;;;;;;13.11;49.51;96865.44;8350827;28;20237;-66
2022/02/17 11:39:58;;;;;;;12.67;4.20;;;;;;;13.48;47.44;96850.63;8350300;28;20240;-67
2022/02/17 11:44:16;;;;;;;10.07;2.70;;;;;;;13.46;46.25;96856.84;8350876;28;20232;-67
2022/02/17 11:48:33;;;;;;;8.40;2.83;;;;;;;12.90;47.60;96873.00;8350712;28;20232;-67
2022/02/17 11:52:38;;;;;;;14.97;4.20;;;;;;;12.80;46.87;96872.81;8350312;28;20235;-66
2022/02/17 11:56:44;;;;;;;12.17;3.40;;;;;;;13.26;45.67;96872.13;8348495;28;20236;-66
2022/02/17 12:00:47;;;;;;;6.90;2.60;;;;;;;13.57;44.91;96850.88;8350106;28;20248;-66
2022/02/17 12:05:13;;;;;;;10.40;3.23;;;;;;;13.47;44.72;96848.94;8349215;28;20535;-67
2022/02/17 12:09:39;;;;;;;11.77;3.47;;;;;;;13.32;44.61;96855.28;8349652;28;20240;-66
2022/02/17 12:14:04;;;;;;;12.37;3.87;;;;;;;13.41;43.90;96877.19;8349048;28;20220;-66
2022/02/17 12:18:08;;;;;;;10.17;3.30;;;;;;;13.50;44.11;96876.53;8348655;28;20251;-66
2022/02/17 12:22:13;;;;;;;9.10;3.23;;;;;;;13.62;44.19;96867.78;8348806;28;20236;-66
2022/02/17 12:26:39;;;;;;;11.63;3.60;;;;;;;13.45;45.25;96873.41;8348236;28;20235;-65
2022/02/17 12:30:43;;;;;;;13.30;4.00;;;;;;;13.08;45.85;96882.09;8315813;28;20228;-66
2022/02/17 12:34:46;;;;;;;13.50;4.97;;;;;;;12.81;46.12;96905.66;8316547;28;20424;-67
2022/02/17 12:38:49;;;;;;;17.80;4.70;;;;;;;12.91;46.75;96919.66;8316159;28;20237;-66
2022/02/17 12:42:54;;;;;;;16.03;4.37;;;;;;;12.57;49.33;96902.19;8316259;28;20235;-66
2022/02/17 12:46:57;;;;;;;17.93;5.13;;;;;;;12.48;49.61;96903.63;8315882;28;20241;-66
2022/02/17 12:51:00;;;;;;;20.27;5.43;;;;;;;12.48;50.25;96921.81;8315796;28;20238;-65
2022/02/17 12:55:09;;;;;;;14.87;4.47;;;;;;;12.52;49.40;96936.25;8315825;28;20229;-66
2022/02/17 12:59:15;;;;;;;16.70;4.07;;;;;;;12.29;47.89;96941.22;8315582;28;20239;-66
2022/02/17 13:03:36;;;;;;;15.10;3.90;;;;;;;12.56;46.57;96916.91;8315588;28;20416;-66
2022/02/17 13:07:41;;;;;;;16.20;4.03;;;;;;;12.91;47.27;96940.44;8315042;28;20224;-66
2022/02/17 13:11:51;;;;;;;8.87;2.60;;;;;;;13.29;45.42;96921.31;8332711;28;20224;-66
2022/02/17 13:15:56;;;;;;;11.73;3.40;;;;;;;13.69;44.16;96920.22;8347086;28;20232;-67
2022/02/17 13:20:19;;;;;;;9.17;3.10;;;;;;;14.00;43.51;96917.94;8346699;28;20232;-66
2022/02/17 13:24:27;;;;;;;13.13;3.60;;;;;;;14.22;43.04;96925.78;8346685;28;20238;-65
2022/02/17 13:28:30;;;;;;;16.17;4.40;;;;;;;13.84;43.63;96913.03;8344645;28;20539;-66
2022/02/17 13:32:39;;;;;;;13.63;4.13;;;;;;;13.79;43.70;96917.75;8346301;28;20228;-66
2022/02/17 13:36:44;;;;;;;11.67;3.93;;;;;;;14.08;43.61;96919.00;8346321;28;20232;-67
2022/02/17 13:40:48;;;;;;;13.37;3.60;;;;;;;13.96;44.11;96926.94;8343892;28;20247;-67
2022/02/17 13:44:54;;;;;;;13.47;4.10;;;;;;;14.57;44.28;96942.31;8346752;28;20262;-67
2022/02/17 13:48:58;;;;;;;10.70;3.50;;;;;;;14.80;43.82;96943.13;8347161;28;20255;-66
2022/02/17 13:53:03;;;;;;;11.83;3.97;;;;;;;14.36;43.37;96940.38;8346913;28;20234;-66
2022/02/17 13:57:07;;;;;;;12.87;4.13;;;;;;;14.16;43.42;96926.25;8346521;28;20238;-66
2022/02/17 14:01:11;;;;;;;15.43;3.80;;;;;;;14.38;43.01;96922.84;8346436;28;20236;-67
2022/02/17 14:05:18;;;;;;;11.83;3.83;;;;;;;13.80;44.06;96919.41;8343097;28;20318;-66
2022/02/17 14:09:21;;;;;;;12.37;3.70;;;;;;;13.66;43.69;96931.66;8346261;28;20536;-67
2022/02/17 14:13:24;;;;;;;13.63;4.20;;;;;;;13.46;44.08;96945.28;8345978;28;20224;-67
2022/02/17 14:17:27;;;;;;;16.83;4.33;;;;;;;13.18;44.21;96960.25;8347016;28;20236;-67
2022/02/17 14:21:32;;;;;;;14.73;4.20;;;;;;;12.79;44.57;96977.66;8350512;28;20262;-67
2022/02/17 14:25:36;;;;;;;15.03;4.23;;;;;;;12.68;44.24;96999.22;8352464;28;20229;-68
2022/02/17 14:29:39;;;;;;;14.33;4.03;;;;;;;12.68;46.23;97007.00;8352402;28;20427;-70
2022/02/17 14:33:42;;;;;;;12.00;3.43;;;;;;;12.56;48.98;97009.59;8349733;28;20235;-68
2022/02/17 14:37:47;;;;;;;7.97;2.40;;;;;;;12.02;47.64;97018.34;8351635;28;20535;-67
2022/02/17 14:41:51;;;;;;;7.27;1.93;;;;;;;11.99;48.38;97031.50;8351515;28;20239;-67
2022/02/17 14:45:54;;;;;;;9.83;2.50;;;;;;;11.62;49.57;97031.25;8351307;28;20243;-67
2022/02/17 14:49:57;;;;;;;9.13;2.50;;;;;;;12.00;48.37;97026.22;8350533;28;20242;-66
2022/02/17 14:54:01;;;;;;;7.37;2.30;;;;;;;11.76;49.19;97040.75;8348924;28;20231;-67
2022/02/17 14:58:04;;;;;;;6.37;2.23;;;;;;;11.67;49.87;97062.91;8350953;28;20235;-68
2022/02/17 15:02:07;;;;;;;9.50;2.67;;;;;;;11.86;51.47;97062.56;8351171;28;20562;-68
2022/02/17 15:06:10;;;;;;;12.40;3.70;;;;;;;11.63;54.00;97066.63;8351075;28;20235;-68
2022/02/17 15:10:15;;;;;;;15.27;3.93;;;;;;;11.63;54.86;97087.38;8318601;28;20232;-66
2022/02/17 15:14:18;;;;;;;14.80;3.67;;;;;;;11.53;55.79;97087.94;8344680;28;20231;-67
2022/02/17 15:18:21;;;;;;;12.97;3.80;;;;;;;10.83;57.84;97095.63;8347784;28;20638;-66
2022/02/17 15:22:24;;;;;;;10.67;3.90;;;;;;;11.24;57.24;97087.16;8349514;28;20228;-66
2022/02/17 15:26:28;;;;;;;15.13;4.17;;;;;;;11.03;58.18;97117.78;8347531;28;20255;-67
2022/02/17 15:30:39;;;;;;;14.17;4.13;;;;;;;11.04;58.03;97142.78;8341635;28;20220;-67
2022/02/17 15:34:42;;;;;;;14.03;4.40;;;;;;;11.33;58.09;97085.75;8349603;28;20277;-66
2022/02/17 15:38:45;;;;;;;12.70;3.80;;;;;;;10.96;58.69;97130.25;8349515;28;20228;-68
2022/02/17 15:42:49;;;;;;;16.57;4.47;;;;;;;11.09;58.44;97116.56;8347281;28;20228;-69
2022/02/17 15:46:52;;;;;;;13.57;3.80;;;;;;;10.88;58.75;97113.50;8347980;28;20539;-68
2022/02/17 15:50:55;;;;;;;13.60;3.77;;;;;;;11.08;58.16;97117.50;8348732;28;20561;-67
2022/02/17 15:54:58;;;;;;;13.77;4.03;;;;;;;11.26;57.78;97137.13;8348785;28;20224;-68
2022/02/17 15:59:03;;;;;;;15.13;4.40;;;;;;;11.38;57.87;97135.53;8348242;28;20231;-70
2022/02/17 16:03:06;;;;;;;13.10;3.67;;;;;;;11.40;58.06;97127.69;8348614;28;20243;-68
2022/02/17 16:07:09;;;;;;;12.87;3.90;;;;;;;11.51;57.38;97133.88;8346268;28;20232;-68
2022/02/17 16:11:12;;;;;;;13.73;4.47;;;;;;;11.54;57.15;97138.88;8348376;28;20228;-69
2022/02/17 16:15:16;;;;;;;15.37;5.37;;;;;;;11.57;57.41;97127.47;8348854;28;20220;-68
2022/02/17 16:19:19;;;;;;;15.13;4.70;;;;;;;11.42;57.36;97124.06;8348772;28;20231;-68
2022/02/17 16:23:24;;;;;;;16.57;5.40;;;;;;;11.41;57.19;97135.38;8348599;28;20277;-67
2022/02/17 16:27:27;;;;;;;19.20;5.40;;;;;;;11.34;58.00;97147.84;8345685;28;20240;-68
2022/02/17 16:31:33;;;;;;;12.27;4.87;;;;;;;11.55;57.25;97152.66;8348475;28;20417;-68
2022/02/17 16:35:36;;;;;;;16.10;4.93;;;;;;;11.49;57.38;97145.28;8348044;28;20220;-69
2022/02/17 16:39:40;;;;;;;14.80;4.60;;;;;;;11.55;57.29;97140.53;8348253;28;20258;-69
2022/02/17 16:43:43;;;;;;;14.27;4.13;;;;;;;11.33;57.84;97135.84;8347256;28;20334;-68
2022/02/17 16:47:50;;;;;;;14.70;4.40;;;;;;;11.53;57.62;97150.16;8347706;28;20231;-68
2022/02/17 16:51:53;;;;;;;15.17;4.10;;;;;;;11.48;57.95;97169.53;8345638;28;20258;-68
2022/02/17 16:55:56;;;;;;;17.33;4.13;;;;;;;11.44;58.12;97181.00;8347518;28;20228;-68
2022/02/17 16:59:59;;;;;;;18.52;5.43;;;;;;;11.12;58.97;97223.47;8344517;28;20438;-72
2022/02/17 17:04:04;;;;;;;15.83;4.23;;;;;;;10.87;59.33;97265.50;8347700;28;20240;-73
2022/02/17 17:08:08;;;;;;;8.23;2.53;;;;;;;10.45;58.35;97273.91;8349330;28;20236;-74
2022/02/17 17:12:12;;;;;;;7.50;2.60;;;;;;;10.80;57.60;97265.94;8347378;28;20238;-72
2022/02/17 17:16:16;;;;;;;11.03;3.90;;;;;;;10.87;57.43;97277.59;8347608;28;20238;-72
2022/02/17 17:20:20;;;;;;;12.53;4.60;;;;;;;10.92;57.67;97283.38;8347846;28;20258;-73
2022/02/17 17:24:24;;;;;;;13.47;4.70;;;;;;;10.77;58.01;97285.06;8347421;28;20228;-73
2022/02/17 17:28:30;;;;;;;11.93;4.53;;;;;;;11.04;57.64;97297.38;8347792;28;20298;-74
2022/02/17 17:32:33;;;;;;;13.40;4.27;;;;;;;10.85;58.16;97295.84;8347528;28;20234;-72
2022/02/17 17:36:38;;;;;;;13.50;4.10;;;;;;;10.89;58.04;97306.84;8347208;28;20243;-71
2022/02/17 17:40:42;;;;;;;14.03;4.97;;;;;;;10.69;58.33;97308.78;8347054;28;20232;-71
2022/02/17 17:49:05;;;;;;;13.30;4.03;;;;;;;10.40;57.95;97325.09;8347551;28;20427;-71
2022/02/17 17:53:10;;;;;;;9.57;3.37;;;;;;;10.60;57.10;97336.94;8347287;28;20232;-70
2022/02/17 17:57:13;;;;;;;9.77;2.73;;;;;;;10.34;57.63;97352.97;8354113;28;20570;-71
2022/02/17 18:01:16;;;;;;;7.67;2.70;;;;;;;10.41;57.51;97360.41;8352750;28;20247;-70
2022/02/17 18:05:20;;;;;;;10.10;3.37;;;;;;;10.53;57.47;97377.88;8353306;28;20247;-71
2022/02/17 18:09:24;;;;;;;11.47;3.47;;;;;;;10.47;57.50;97380.78;8353450;28;20256;-71
2022/02/17 18:13:28;;;;;;;10.90;3.50;;;;;;;10.33;57.68;97387.53;8353356;28;20244;-71
2022/02/17 18:17:32;;;;;;;8.90;3.80;;;;;;;10.49;57.47;97407.41;8351924;28;20224;-70
2022/02/17 18:21:35;;;;;;;9.40;2.90;;;;;;;10.30;58.04;97405.81;8352345;28;20232;-70
2022/02/17 18:25:41;;;;;;;10.10;3.70;;;;;;;10.41;57.64;97410.41;8352562;28;20251;-70
2022/02/17 18:29:44;;;;;;;11.80;3.27;;;;;;;10.37;57.34;97408.91;8352726;28;20232;-71
2022/02/17 18:33:47;;;;;;;10.57;3.50;;;;;;;10.32;57.22;97429.03;8352581;28;20232;-70
2022/02/17 18:37:50;;;;;;;10.93;3.30;;;;;;;10.25;57.33;97422.47;8352783;28;20538;-71
2022/02/17 18:41:55;;;;;;;24.00;4.60;;;;;;;12.09;71.38;97429.66;8351512;28;20232;-65
2022/02/17 18:45:58;;;;;;;12.03;4.17;;;;;;;12.69;57.95;97432.06;8352141;28;20256;-65
2022/02/17 18:50:01;;;;;;;16.77;4.47;;;;;;;11.39;53.46;97445.72;8352483;28;20231;-73
2022/02/17 18:54:04;;;;;;;10.93;3.80;;;;;;;10.93;53.93;97445.66;8351720;28;20242;-69
2022/02/17 18:58:10;;;;;;;13.20;4.20;;;;;;;10.46;53.93;97449.84;8344858;28;20411;-69
2022/02/17 19:02:14;;;;;;;16.87;4.60;;;;;;;10.65;53.70;97465.25;8351552;28;20236;-69
2022/02/17 19:06:19;;;;;;;13.10;3.90;;;;;;;10.59;54.38;97488.88;8348381;28;20275;-69
2022/02/17 19:10:24;;;;;;;16.20;4.43;;;;;;;10.62;54.23;97486.13;8351499;28;20232;-69
2022/02/17 19:14:42;;;;;;;13.67;4.37;;;;;;;10.80;54.44;97492.09;8351464;28;20247;-69